sensor_id;sensor_type;location;lat;lon;timestamp;P1;durP1;ratioP1;P2;durP2;ratioP2
36931;SDS011;22847;42.654;23.370;2024-03-06T00:01:53;45.17;;;21.00;;
36931;SDS011;22847;42.654;23.370;2024-03-06T00:04:19;39.25;;;20.20;;
36931;SDS011;22847;42.654;23.370;2024-03-06T00:06:45;39.85;;;19.52;;
36931;SDS011;22847;42.654;23.370;2024-03-06T00:09:10;40.83;;;19.27;;
36931;SDS011;22847;42.654;23.370;2024-03-06T00:11:37;37.92;;;20.08;;
36931;SDS011;22847;42.654;23.370;2024-03-06T00:14:02;41.67;;;20.20;;
36931;SDS011;22847;42.654;23.370;2024-03-06T00:16:30;39.00;;;18.17;;
36931;SDS011;22847;42.654;23.370;2024-03-06T00:18:59;39.03;;;18.45;;
36931;SDS011;22847;42.654;23.370;2024-03-06T00:21:24;34.92;;;17.50;;
36931;SDS011;22847;42.654;23.370;2024-03-06T00:23:50;32.92;;;17.58;;
36931;SDS011;22847;42.654;23.370;2024-03-06T00:26:15;37.20;;;17.35;;
36931;SDS011;22847;42.654;23.370;2024-03-06T00:28:41;39.38;;;18.10;;
36931;SDS011;22847;42.654;23.370;2024-03-06T00:31:07;33.60;;;18.35;;
36931;SDS011;22847;42.654;23.370;2024-03-06T00:33:33;30.90;;;17.38;;
36931;SDS011;22847;42.654;23.370;2024-03-06T00:35:58;30.48;;;16.75;;
36931;SDS011;22847;42.654;23.370;2024-03-06T00:38:24;31.52;;;16.75;;
36931;SDS011;22847;42.654;23.370;2024-03-06T00:40:49;30.15;;;17.15;;
36931;SDS011;22847;42.654;23.370;2024-03-06T00:43:15;32.85;;;18.05;;
36931;SDS011;22847;42.654;23.370;2024-03-06T00:45:40;35.17;;;16.20;;
36931;SDS011;22847;42.654;23.370;2024-03-06T00:48:06;32.38;;;16.58;;
36931;SDS011;22847;42.654;23.370;2024-03-06T00:50:31;33.17;;;16.88;;
36931;SDS011;22847;42.654;23.370;2024-03-06T00:52:57;30.80;;;17.73;;
36931;SDS011;22847;42.654;23.370;2024-03-06T00:55:23;35.65;;;16.92;;
36931;SDS011;22847;42.654;23.370;2024-03-06T00:57:48;38.78;;;17.58;;
36931;SDS011;22847;42.654;23.370;2024-03-06T01:00:14;34.53;;;17.88;;
36931;SDS011;22847;42.654;23.370;2024-03-06T01:02:41;36.78;;;16.90;;
36931;SDS011;22847;42.654;23.370;2024-03-06T01:05:07;34.90;;;16.92;;
36931;SDS011;22847;42.654;23.370;2024-03-06T01:07:34;33.88;;;17.25;;
36931;SDS011;22847;42.654;23.370;2024-03-06T01:10:00;39.10;;;17.65;;
36931;SDS011;22847;42.654;23.370;2024-03-06T01:12:26;34.53;;;17.08;;
36931;SDS011;22847;42.654;23.370;2024-03-06T01:14:52;36.97;;;17.38;;
36931;SDS011;22847;42.654;23.370;2024-03-06T01:17:17;34.58;;;18.55;;
36931;SDS011;22847;42.654;23.370;2024-03-06T01:19:43;38.42;;;18.70;;
36931;SDS011;22847;42.654;23.370;2024-03-06T01:22:09;39.33;;;18.30;;
36931;SDS011;22847;42.654;23.370;2024-03-06T01:24:34;42.03;;;19.73;;
36931;SDS011;22847;42.654;23.370;2024-03-06T01:27:00;33.35;;;17.50;;
36931;SDS011;22847;42.654;23.370;2024-03-06T01:29:27;35.33;;;18.77;;
36931;SDS011;22847;42.654;23.370;2024-03-06T01:31:54;39.00;;;19.60;;
36931;SDS011;22847;42.654;23.370;2024-03-06T01:34:19;41.53;;;19.92;;
36931;SDS011;22847;42.654;23.370;2024-03-06T01:36:45;37.30;;;19.88;;
36931;SDS011;22847;42.654;23.370;2024-03-06T01:39:10;36.95;;;19.13;;
36931;SDS011;22847;42.654;23.370;2024-03-06T01:41:36;43.88;;;19.35;;
36931;SDS011;22847;42.654;23.370;2024-03-06T01:44:02;37.97;;;19.40;;
36931;SDS011;22847;42.654;23.370;2024-03-06T01:46:28;38.15;;;19.35;;
36931;SDS011;22847;42.654;23.370;2024-03-06T01:48:54;41.25;;;20.35;;
36931;SDS011;22847;42.654;23.370;2024-03-06T01:51:20;46.45;;;21.20;;
36931;SDS011;22847;42.654;23.370;2024-03-06T01:53:45;40.58;;;20.88;;
36931;SDS011;22847;42.654;23.370;2024-03-06T01:56:11;39.30;;;19.50;;
36931;SDS011;22847;42.654;23.370;2024-03-06T01:58:42;43.53;;;19.27;;
36931;SDS011;22847;42.654;23.370;2024-03-06T02:01:11;41.00;;;19.45;;
36931;SDS011;22847;42.654;23.370;2024-03-06T02:03:36;40.85;;;21.27;;
36931;SDS011;22847;42.654;23.370;2024-03-06T02:06:02;40.67;;;19.17;;
36931;SDS011;22847;42.654;23.370;2024-03-06T02:08:29;38.53;;;19.63;;
36931;SDS011;22847;42.654;23.370;2024-03-06T02:10:55;40.65;;;19.02;;
36931;SDS011;22847;42.654;23.370;2024-03-06T02:13:21;35.95;;;19.15;;
36931;SDS011;22847;42.654;23.370;2024-03-06T02:15:47;40.08;;;20.88;;
36931;SDS011;22847;42.654;23.370;2024-03-06T02:18:13;39.35;;;20.17;;
36931;SDS011;22847;42.654;23.370;2024-03-06T02:20:38;49.47;;;21.27;;
36931;SDS011;22847;42.654;23.370;2024-03-06T02:23:05;43.55;;;19.05;;
36931;SDS011;22847;42.654;23.370;2024-03-06T02:25:31;38.92;;;20.10;;
36931;SDS011;22847;42.654;23.370;2024-03-06T02:27:56;37.17;;;19.25;;
36931;SDS011;22847;42.654;23.370;2024-03-06T02:30:22;39.42;;;20.48;;
36931;SDS011;22847;42.654;23.370;2024-03-06T02:32:47;42.20;;;19.27;;
36931;SDS011;22847;42.654;23.370;2024-03-06T02:35:13;42.60;;;19.70;;
36931;SDS011;22847;42.654;23.370;2024-03-06T02:37:38;42.67;;;19.85;;
36931;SDS011;22847;42.654;23.370;2024-03-06T02:40:06;42.05;;;19.30;;
36931;SDS011;22847;42.654;23.370;2024-03-06T02:42:35;36.85;;;19.10;;
36931;SDS011;22847;42.654;23.370;2024-03-06T02:45:02;39.00;;;18.25;;
36931;SDS011;22847;42.654;23.370;2024-03-06T02:47:28;39.03;;;20.42;;
36931;SDS011;22847;42.654;23.370;2024-03-06T02:49:53;43.22;;;21.55;;
36931;SDS011;22847;42.654;23.370;2024-03-06T02:52:19;35.95;;;19.40;;
36931;SDS011;22847;42.654;23.370;2024-03-06T02:54:44;42.45;;;20.42;;
36931;SDS011;22847;42.654;23.370;2024-03-06T02:57:09;38.47;;;19.88;;
36931;SDS011;22847;42.654;23.370;2024-03-06T02:59:35;47.45;;;21.38;;
36931;SDS011;22847;42.654;23.370;2024-03-06T03:02:00;37.67;;;20.80;;
36931;SDS011;22847;42.654;23.370;2024-03-06T03:04:26;36.85;;;19.48;;
36931;SDS011;22847;42.654;23.370;2024-03-06T03:06:52;39.88;;;19.52;;
36931;SDS011;22847;42.654;23.370;2024-03-06T03:09:17;42.33;;;20.60;;
36931;SDS011;22847;42.654;23.370;2024-03-06T03:11:43;39.83;;;20.10;;
36931;SDS011;22847;42.654;23.370;2024-03-06T03:14:09;40.17;;;20.48;;
36931;SDS011;22847;42.654;23.370;2024-03-06T03:16:35;39.50;;;19.90;;
36931;SDS011;22847;42.654;23.370;2024-03-06T03:19:00;39.97;;;20.17;;
36931;SDS011;22847;42.654;23.370;2024-03-06T03:21:26;39.33;;;19.00;;
36931;SDS011;22847;42.654;23.370;2024-03-06T03:23:52;37.42;;;19.95;;
36931;SDS011;22847;42.654;23.370;2024-03-06T03:26:17;39.45;;;19.67;;
36931;SDS011;22847;42.654;23.370;2024-03-06T03:28:43;39.22;;;21.25;;
36931;SDS011;22847;42.654;23.370;2024-03-06T03:31:08;41.50;;;20.58;;
36931;SDS011;22847;42.654;23.370;2024-03-06T03:33:44;37.67;;;19.27;;
36931;SDS011;22847;42.654;23.370;2024-03-06T03:38:37;40.53;;;19.00;;
36931;SDS011;22847;42.654;23.370;2024-03-06T03:41:09;39.28;;;18.88;;
36931;SDS011;22847;42.654;23.370;2024-03-06T03:43:37;41.50;;;20.92;;
36931;SDS011;22847;42.654;23.370;2024-03-06T03:46:04;41.25;;;19.45;;
36931;SDS011;22847;42.654;23.370;2024-03-06T03:48:30;37.83;;;19.40;;
36931;SDS011;22847;42.654;23.370;2024-03-06T03:50:56;39.85;;;20.27;;
36931;SDS011;22847;42.654;23.370;2024-03-06T03:53:21;41.55;;;21.30;;
36931;SDS011;22847;42.654;23.370;2024-03-06T03:55:47;46.95;;;21.65;;
36931;SDS011;22847;42.654;23.370;2024-03-06T03:58:12;44.83;;;20.67;;
36931;SDS011;22847;42.654;23.370;2024-03-06T04:00:38;38.92;;;20.58;;
36931;SDS011;22847;42.654;23.370;2024-03-06T04:03:03;47.00;;;21.42;;
36931;SDS011;22847;42.654;23.370;2024-03-06T04:05:29;43.00;;;19.67;;
36931;SDS011;22847;42.654;23.370;2024-03-06T04:07:56;40.17;;;20.75;;
36931;SDS011;22847;42.654;23.370;2024-03-06T04:10:21;40.28;;;19.58;;
36931;SDS011;22847;42.654;23.370;2024-03-06T04:12:47;38.17;;;19.67;;
36931;SDS011;22847;42.654;23.370;2024-03-06T04:15:12;39.05;;;19.92;;
36931;SDS011;22847;42.654;23.370;2024-03-06T04:17:38;39.67;;;19.58;;
36931;SDS011;22847;42.654;23.370;2024-03-06T04:20:06;38.63;;;19.90;;
36931;SDS011;22847;42.654;23.370;2024-03-06T04:22:32;42.33;;;20.27;;
36931;SDS011;22847;42.654;23.370;2024-03-06T04:24:58;45.78;;;20.75;;
36931;SDS011;22847;42.654;23.370;2024-03-06T04:27:24;39.83;;;20.42;;
36931;SDS011;22847;42.654;23.370;2024-03-06T04:29:50;38.17;;;19.77;;
36931;SDS011;22847;42.654;23.370;2024-03-06T04:32:16;45.10;;;20.58;;
36931;SDS011;22847;42.654;23.370;2024-03-06T04:34:41;44.03;;;21.23;;
36931;SDS011;22847;42.654;23.370;2024-03-06T04:37:07;38.95;;;20.38;;
36931;SDS011;22847;42.654;23.370;2024-03-06T04:39:32;40.10;;;19.75;;
36931;SDS011;22847;42.654;23.370;2024-03-06T04:41:58;43.58;;;21.10;;
36931;SDS011;22847;42.654;23.370;2024-03-06T04:44:23;44.03;;;20.00;;
36931;SDS011;22847;42.654;23.370;2024-03-06T04:46:51;48.90;;;20.92;;
36931;SDS011;22847;42.654;23.370;2024-03-06T04:49:17;41.35;;;20.08;;
36931;SDS011;22847;42.654;23.370;2024-03-06T04:51:42;42.97;;;21.33;;
36931;SDS011;22847;42.654;23.370;2024-03-06T04:54:08;43.83;;;21.35;;
36931;SDS011;22847;42.654;23.370;2024-03-06T04:56:33;39.75;;;20.83;;
36931;SDS011;22847;42.654;23.370;2024-03-06T04:58:59;39.53;;;20.60;;
36931;SDS011;22847;42.654;23.370;2024-03-06T05:01:28;39.25;;;20.92;;
36931;SDS011;22847;42.654;23.370;2024-03-06T05:03:54;49.97;;;24.30;;
36931;SDS011;22847;42.654;23.370;2024-03-06T05:06:21;41.78;;;20.85;;
36931;SDS011;22847;42.654;23.370;2024-03-06T05:08:47;36.00;;;18.45;;
36931;SDS011;22847;42.654;23.370;2024-03-06T05:11:13;34.35;;;18.25;;
36931;SDS011;22847;42.654;23.370;2024-03-06T05:13:38;39.17;;;18.98;;
36931;SDS011;22847;42.654;23.370;2024-03-06T05:16:04;49.60;;;19.30;;
36931;SDS011;22847;42.654;23.370;2024-03-06T05:18:31;31.52;;;17.00;;
36931;SDS011;22847;42.654;23.370;2024-03-06T05:20:56;38.58;;;17.48;;
36931;SDS011;22847;42.654;23.370;2024-03-06T05:23:22;33.88;;;17.63;;
36931;SDS011;22847;42.654;23.370;2024-03-06T05:25:48;39.30;;;18.70;;
36931;SDS011;22847;42.654;23.370;2024-03-06T05:28:14;39.92;;;19.05;;
36931;SDS011;22847;42.654;23.370;2024-03-06T05:30:39;34.80;;;18.58;;
36931;SDS011;22847;42.654;23.370;2024-03-06T05:33:05;51.85;;;21.27;;
36931;SDS011;22847;42.654;23.370;2024-03-06T05:35:30;43.17;;;23.17;;
36931;SDS011;22847;42.654;23.370;2024-03-06T05:37:56;49.80;;;26.52;;
36931;SDS011;22847;42.654;23.370;2024-03-06T05:40:22;52.22;;;25.23;;
36931;SDS011;22847;42.654;23.370;2024-03-06T05:42:47;49.97;;;23.30;;
36931;SDS011;22847;42.654;23.370;2024-03-06T05:45:13;53.42;;;28.08;;
36931;SDS011;22847;42.654;23.370;2024-03-06T05:47:38;41.42;;;21.48;;
36931;SDS011;22847;42.654;23.370;2024-03-06T05:50:07;41.85;;;20.65;;
36931;SDS011;22847;42.654;23.370;2024-03-06T05:52:35;49.95;;;20.63;;
36931;SDS011;22847;42.654;23.370;2024-03-06T05:55:02;43.78;;;21.65;;
36931;SDS011;22847;42.654;23.370;2024-03-06T05:57:28;54.80;;;26.35;;
36931;SDS011;22847;42.654;23.370;2024-03-06T05:59:53;46.42;;;22.67;;
36931;SDS011;22847;42.654;23.370;2024-03-06T06:02:19;44.22;;;20.52;;
36931;SDS011;22847;42.654;23.370;2024-03-06T06:04:45;51.50;;;22.85;;
36931;SDS011;22847;42.654;23.370;2024-03-06T06:07:11;48.47;;;22.42;;
36931;SDS011;22847;42.654;23.370;2024-03-06T06:09:36;40.60;;;21.30;;
36931;SDS011;22847;42.654;23.370;2024-03-06T06:12:02;40.38;;;20.65;;
36931;SDS011;22847;42.654;23.370;2024-03-06T06:14:28;45.08;;;22.02;;
36931;SDS011;22847;42.654;23.370;2024-03-06T06:16:54;41.03;;;21.92;;
36931;SDS011;22847;42.654;23.370;2024-03-06T06:19:21;47.78;;;21.77;;
36931;SDS011;22847;42.654;23.370;2024-03-06T06:21:46;45.85;;;21.30;;
36931;SDS011;22847;42.654;23.370;2024-03-06T06:24:12;43.10;;;21.17;;
36931;SDS011;22847;42.654;23.370;2024-03-06T06:26:39;50.33;;;22.15;;
36931;SDS011;22847;42.654;23.370;2024-03-06T06:29:05;44.70;;;22.25;;
36931;SDS011;22847;42.654;23.370;2024-03-06T06:31:30;46.00;;;22.90;;
36931;SDS011;22847;42.654;23.370;2024-03-06T06:33:56;42.17;;;20.40;;
36931;SDS011;22847;42.654;23.370;2024-03-06T06:36:22;43.85;;;20.40;;
36931;SDS011;22847;42.654;23.370;2024-03-06T06:38:48;41.67;;;18.58;;
36931;SDS011;22847;42.654;23.370;2024-03-06T06:41:14;41.58;;;18.15;;
36931;SDS011;22847;42.654;23.370;2024-03-06T06:43:40;44.60;;;18.33;;
36931;SDS011;22847;42.654;23.370;2024-03-06T06:46:07;40.88;;;19.23;;
36931;SDS011;22847;42.654;23.370;2024-03-06T06:48:33;47.50;;;22.15;;
36931;SDS011;22847;42.654;23.370;2024-03-06T06:50:59;34.88;;;17.73;;
36931;SDS011;22847;42.654;23.370;2024-03-06T06:53:27;39.53;;;17.08;;
36931;SDS011;22847;42.654;23.370;2024-03-06T06:55:53;33.63;;;17.70;;
36931;SDS011;22847;42.654;23.370;2024-03-06T06:58:18;36.95;;;18.95;;
36931;SDS011;22847;42.654;23.370;2024-03-06T07:00:45;43.63;;;19.77;;
36931;SDS011;22847;42.654;23.370;2024-03-06T07:03:10;31.98;;;17.50;;
36931;SDS011;22847;42.654;23.370;2024-03-06T07:05:36;31.33;;;17.55;;
36931;SDS011;22847;42.654;23.370;2024-03-06T07:08:01;38.88;;;20.02;;
36931;SDS011;22847;42.654;23.370;2024-03-06T07:10:27;32.65;;;18.15;;
36931;SDS011;22847;42.654;23.370;2024-03-06T07:12:52;33.47;;;17.80;;
36931;SDS011;22847;42.654;23.370;2024-03-06T07:15:18;33.85;;;19.00;;
36931;SDS011;22847;42.654;23.370;2024-03-06T07:17:44;40.25;;;19.35;;
36931;SDS011;22847;42.654;23.370;2024-03-06T07:20:09;34.30;;;18.58;;
36931;SDS011;22847;42.654;23.370;2024-03-06T07:22:36;32.28;;;18.45;;
36931;SDS011;22847;42.654;23.370;2024-03-06T07:25:02;33.47;;;16.65;;
36931;SDS011;22847;42.654;23.370;2024-03-06T07:27:30;34.30;;;17.90;;
36931;SDS011;22847;42.654;23.370;2024-03-06T07:29:56;42.72;;;21.10;;
36931;SDS011;22847;42.654;23.370;2024-03-06T07:32:21;49.67;;;22.90;;
36931;SDS011;22847;42.654;23.370;2024-03-06T07:34:47;50.90;;;23.90;;
36931;SDS011;22847;42.654;23.370;2024-03-06T07:37:12;48.67;;;24.13;;
36931;SDS011;22847;42.654;23.370;2024-03-06T07:39:39;48.55;;;23.80;;
36931;SDS011;22847;42.654;23.370;2024-03-06T07:42:05;49.88;;;26.95;;
36931;SDS011;22847;42.654;23.370;2024-03-06T07:44:31;66.03;;;28.90;;
36931;SDS011;22847;42.654;23.370;2024-03-06T07:46:56;63.60;;;26.77;;
36931;SDS011;22847;42.654;23.370;2024-03-06T07:49:22;50.33;;;25.83;;
36931;SDS011;22847;42.654;23.370;2024-03-06T07:51:47;54.17;;;26.70;;
36931;SDS011;22847;42.654;23.370;2024-03-06T07:54:13;57.53;;;28.90;;
36931;SDS011;22847;42.654;23.370;2024-03-06T07:56:39;57.22;;;25.58;;
36931;SDS011;22847;42.654;23.370;2024-03-06T07:59:04;51.60;;;25.27;;
36931;SDS011;22847;42.654;23.370;2024-03-06T08:01:30;51.10;;;23.90;;
36931;SDS011;22847;42.654;23.370;2024-03-06T08:03:57;54.67;;;26.52;;
36931;SDS011;22847;42.654;23.370;2024-03-06T08:06:22;50.83;;;26.00;;
36931;SDS011;22847;42.654;23.370;2024-03-06T08:08:48;48.33;;;24.83;;
36931;SDS011;22847;42.654;23.370;2024-03-06T08:11:14;55.22;;;26.65;;
36931;SDS011;22847;42.654;23.370;2024-03-06T08:13:40;48.30;;;26.23;;
36931;SDS011;22847;42.654;23.370;2024-03-06T08:16:06;40.67;;;23.85;;
36931;SDS011;22847;42.654;23.370;2024-03-06T08:18:32;44.85;;;23.83;;
36931;SDS011;22847;42.654;23.370;2024-03-06T08:20:59;46.60;;;24.27;;
36931;SDS011;22847;42.654;23.370;2024-03-06T08:23:25;39.42;;;21.98;;
36931;SDS011;22847;42.654;23.370;2024-03-06T08:25:51;46.72;;;24.42;;
36931;SDS011;22847;42.654;23.370;2024-03-06T08:28:17;45.88;;;22.60;;
36931;SDS011;22847;42.654;23.370;2024-03-06T08:30:43;39.28;;;21.58;;
36931;SDS011;22847;42.654;23.370;2024-03-06T08:33:09;44.45;;;21.88;;
36931;SDS011;22847;42.654;23.370;2024-03-06T08:35:35;40.20;;;22.88;;
36931;SDS011;22847;42.654;23.370;2024-03-06T08:38:00;54.55;;;24.88;;
36931;SDS011;22847;42.654;23.370;2024-03-06T08:40:26;42.63;;;23.13;;
36931;SDS011;22847;42.654;23.370;2024-03-06T08:42:52;39.50;;;22.48;;
36931;SDS011;22847;42.654;23.370;2024-03-06T08:45:18;49.70;;;24.17;;
36931;SDS011;22847;42.654;23.370;2024-03-06T08:47:44;47.95;;;23.75;;
36931;SDS011;22847;42.654;23.370;2024-03-06T08:50:10;53.22;;;23.98;;
36931;SDS011;22847;42.654;23.370;2024-03-06T08:52:38;40.17;;;22.65;;
36931;SDS011;22847;42.654;23.370;2024-03-06T08:55:04;41.58;;;21.55;;
36931;SDS011;22847;42.654;23.370;2024-03-06T08:57:31;36.08;;;22.08;;
36931;SDS011;22847;42.654;23.370;2024-03-06T08:59:57;43.70;;;22.98;;
36931;SDS011;22847;42.654;23.370;2024-03-06T09:02:23;45.25;;;21.92;;
36931;SDS011;22847;42.654;23.370;2024-03-06T09:04:49;40.05;;;22.23;;
36931;SDS011;22847;42.654;23.370;2024-03-06T09:07:16;41.80;;;23.00;;
36931;SDS011;22847;42.654;23.370;2024-03-06T09:09:42;37.42;;;20.73;;
36931;SDS011;22847;42.654;23.370;2024-03-06T09:12:08;46.28;;;22.95;;
36931;SDS011;22847;42.654;23.370;2024-03-06T09:14:39;37.60;;;20.15;;
36931;SDS011;22847;42.654;23.370;2024-03-06T09:17:06;34.85;;;17.65;;
36931;SDS011;22847;42.654;23.370;2024-03-06T09:19:34;30.15;;;17.45;;
36931;SDS011;22847;42.654;23.370;2024-03-06T09:22:00;33.70;;;18.10;;
36931;SDS011;22847;42.654;23.370;2024-03-06T09:24:26;30.55;;;16.15;;
36931;SDS011;22847;42.654;23.370;2024-03-06T09:26:51;30.77;;;16.85;;
36931;SDS011;22847;42.654;23.370;2024-03-06T09:29:17;40.08;;;16.95;;
36931;SDS011;22847;42.654;23.370;2024-03-06T09:31:43;30.80;;;16.05;;
36931;SDS011;22847;42.654;23.370;2024-03-06T09:34:09;29.27;;;16.77;;
36931;SDS011;22847;42.654;23.370;2024-03-06T09:36:37;32.15;;;16.42;;
36931;SDS011;22847;42.654;23.370;2024-03-06T09:39:21;29.33;;;15.47;;
36931;SDS011;22847;42.654;23.370;2024-03-06T09:41:48;31.88;;;15.65;;
36931;SDS011;22847;42.654;23.370;2024-03-06T09:44:15;31.48;;;15.90;;
36931;SDS011;22847;42.654;23.370;2024-03-06T09:46:45;30.05;;;14.95;;
36931;SDS011;22847;42.654;23.370;2024-03-06T09:49:12;29.67;;;15.00;;
36931;SDS011;22847;42.654;23.370;2024-03-06T09:51:40;23.77;;;13.65;;
36931;SDS011;22847;42.654;23.370;2024-03-06T09:54:09;26.80;;;14.75;;
36931;SDS011;22847;42.654;23.370;2024-03-06T09:56:37;29.55;;;14.25;;
36931;SDS011;22847;42.654;23.370;2024-03-06T09:59:02;26.42;;;13.35;;
36931;SDS011;22847;42.654;23.370;2024-03-06T10:01:28;24.45;;;15.00;;
36931;SDS011;22847;42.654;23.370;2024-03-06T10:03:56;23.55;;;13.25;;
36931;SDS011;22847;42.654;23.370;2024-03-06T10:06:21;25.77;;;12.40;;
36931;SDS011;22847;42.654;23.370;2024-03-06T10:08:47;25.95;;;14.80;;
36931;SDS011;22847;42.654;23.370;2024-03-06T10:11:14;23.80;;;13.93;;
36931;SDS011;22847;42.654;23.370;2024-03-06T10:13:42;29.67;;;14.50;;
36931;SDS011;22847;42.654;23.370;2024-03-06T10:16:07;18.67;;;11.70;;
36931;SDS011;22847;42.654;23.370;2024-03-06T10:18:35;19.88;;;11.95;;
36931;SDS011;22847;42.654;23.370;2024-03-06T10:21:03;24.23;;;11.82;;
36931;SDS011;22847;42.654;23.370;2024-03-06T10:23:30;23.75;;;12.07;;
36931;SDS011;22847;42.654;23.370;2024-03-06T10:25:56;24.38;;;13.07;;
36931;SDS011;22847;42.654;23.370;2024-03-06T10:28:22;23.65;;;11.35;;
36931;SDS011;22847;42.654;23.370;2024-03-06T10:30:49;18.90;;;9.75;;
36931;SDS011;22847;42.654;23.370;2024-03-06T10:33:15;27.40;;;12.77;;
36931;SDS011;22847;42.654;23.370;2024-03-06T10:35:44;18.55;;;11.65;;
36931;SDS011;22847;42.654;23.370;2024-03-06T10:38:11;25.52;;;11.77;;
36931;SDS011;22847;42.654;23.370;2024-03-06T10:40:38;20.52;;;11.02;;
36931;SDS011;22847;42.654;23.370;2024-03-06T10:43:08;19.60;;;8.98;;
36931;SDS011;22847;42.654;23.370;2024-03-06T10:48:02;15.40;;;9.73;;
36931;SDS011;22847;42.654;23.370;2024-03-06T10:50:29;18.92;;;10.05;;
36931;SDS011;22847;42.654;23.370;2024-03-06T10:52:56;20.05;;;10.50;;
36931;SDS011;22847;42.654;23.370;2024-03-06T10:55:22;18.00;;;9.38;;
36931;SDS011;22847;42.654;23.370;2024-03-06T10:57:49;18.85;;;9.55;;
36931;SDS011;22847;42.654;23.370;2024-03-06T11:00:18;20.02;;;10.27;;
36931;SDS011;22847;42.654;23.370;2024-03-06T11:02:46;16.10;;;8.55;;
36931;SDS011;22847;42.654;23.370;2024-03-06T11:05:14;15.25;;;8.52;;
36931;SDS011;22847;42.654;23.370;2024-03-06T11:07:40;16.88;;;8.98;;
36931;SDS011;22847;42.654;23.370;2024-03-06T11:10:06;14.98;;;8.90;;
36931;SDS011;22847;42.654;23.370;2024-03-06T11:12:36;17.80;;;9.38;;
36931;SDS011;22847;42.654;23.370;2024-03-06T11:15:10;17.50;;;8.75;;
36931;SDS011;22847;42.654;23.370;2024-03-06T11:17:39;17.10;;;9.13;;
36931;SDS011;22847;42.654;23.370;2024-03-06T11:20:07;15.02;;;9.38;;
36931;SDS011;22847;42.654;23.370;2024-03-06T11:28:23;12.50;;;8.90;;
36931;SDS011;22847;42.654;23.370;2024-03-06T11:36:16;17.27;;;8.48;;
36931;SDS011;22847;42.654;23.370;2024-03-06T11:38:52;11.45;;;7.65;;
36931;SDS011;22847;42.654;23.370;2024-03-06T11:41:25;17.50;;;9.13;;
36931;SDS011;22847;42.654;23.370;2024-03-06T11:43:52;15.43;;;7.90;;
36931;SDS011;22847;42.654;23.370;2024-03-06T11:46:22;16.58;;;8.60;;
36931;SDS011;22847;42.654;23.370;2024-03-06T11:49:04;16.60;;;8.73;;
36931;SDS011;22847;42.654;23.370;2024-03-06T11:51:40;12.20;;;8.20;;
36931;SDS011;22847;42.654;23.370;2024-03-06T11:54:06;20.83;;;8.32;;
36931;SDS011;22847;42.654;23.370;2024-03-06T11:56:32;15.10;;;8.02;;
36931;SDS011;22847;42.654;23.370;2024-03-06T11:58:58;20.85;;;8.68;;
36931;SDS011;22847;42.654;23.370;2024-03-06T12:01:24;17.42;;;8.13;;
36931;SDS011;22847;42.654;23.370;2024-03-06T12:03:49;13.30;;;8.00;;
36931;SDS011;22847;42.654;23.370;2024-03-06T12:06:15;14.63;;;7.75;;
36931;SDS011;22847;42.654;23.370;2024-03-06T12:08:42;16.85;;;8.38;;
36931;SDS011;22847;42.654;23.370;2024-03-06T12:11:07;17.67;;;9.40;;
36931;SDS011;22847;42.654;23.370;2024-03-06T12:13:33;15.43;;;8.20;;
36931;SDS011;22847;42.654;23.370;2024-03-06T12:16:03;14.48;;;8.18;;
36931;SDS011;22847;42.654;23.370;2024-03-06T12:18:30;13.40;;;7.85;;
36931;SDS011;22847;42.654;23.370;2024-03-06T12:20:55;10.93;;;7.13;;
36931;SDS011;22847;42.654;23.370;2024-03-06T12:23:24;12.68;;;8.32;;
36931;SDS011;22847;42.654;23.370;2024-03-06T12:26:01;20.58;;;12.15;;
36931;SDS011;22847;42.654;23.370;2024-03-06T12:28:36;13.35;;;8.82;;
36931;SDS011;22847;42.654;23.370;2024-03-06T12:31:03;19.88;;;8.35;;
36931;SDS011;22847;42.654;23.370;2024-03-06T12:33:29;13.20;;;8.20;;
36931;SDS011;22847;42.654;23.370;2024-03-06T12:36:08;18.80;;;10.20;;
36931;SDS011;22847;42.654;23.370;2024-03-06T12:38:36;13.20;;;8.20;;
36931;SDS011;22847;42.654;23.370;2024-03-06T12:41:02;14.73;;;7.50;;
36931;SDS011;22847;42.654;23.370;2024-03-06T12:43:29;16.58;;;8.00;;
36931;SDS011;22847;42.654;23.370;2024-03-06T12:45:54;16.13;;;7.40;;
36931;SDS011;22847;42.654;23.370;2024-03-06T12:48:22;17.95;;;7.72;;
36931;SDS011;22847;42.654;23.370;2024-03-06T12:50:48;19.45;;;8.40;;
36931;SDS011;22847;42.654;23.370;2024-03-06T12:53:20;17.02;;;8.63;;
36931;SDS011;22847;42.654;23.370;2024-03-06T12:55:47;18.63;;;7.90;;
36931;SDS011;22847;42.654;23.370;2024-03-06T12:58:13;32.92;;;16.52;;
36931;SDS011;22847;42.654;23.370;2024-03-06T13:00:39;14.55;;;8.90;;
36931;SDS011;22847;42.654;23.370;2024-03-06T13:03:05;19.67;;;9.18;;
36931;SDS011;22847;42.654;23.370;2024-03-06T13:05:31;22.00;;;8.70;;
36931;SDS011;22847;42.654;23.370;2024-03-06T13:07:58;19.38;;;8.13;;
36931;SDS011;22847;42.654;23.370;2024-03-06T13:10:27;23.67;;;7.65;;
36931;SDS011;22847;42.654;23.370;2024-03-06T13:12:52;21.10;;;8.13;;
36931;SDS011;22847;42.654;23.370;2024-03-06T13:15:18;18.15;;;8.23;;
36931;SDS011;22847;42.654;23.370;2024-03-06T13:17:43;14.02;;;6.57;;
36931;SDS011;22847;42.654;23.370;2024-03-06T13:20:09;9.73;;;5.90;;
36931;SDS011;22847;42.654;23.370;2024-03-06T13:22:36;16.00;;;6.55;;
36931;SDS011;22847;42.654;23.370;2024-03-06T13:25:02;12.93;;;5.90;;
36931;SDS011;22847;42.654;23.370;2024-03-06T13:27:29;20.90;;;6.38;;
36931;SDS011;22847;42.654;23.370;2024-03-06T13:29:54;11.93;;;5.70;;
36931;SDS011;22847;42.654;23.370;2024-03-06T13:32:20;10.93;;;6.05;;
36931;SDS011;22847;42.654;23.370;2024-03-06T13:34:45;11.65;;;5.57;;
36931;SDS011;22847;42.654;23.370;2024-03-06T13:37:10;12.15;;;6.13;;
36931;SDS011;22847;42.654;23.370;2024-03-06T13:39:36;13.43;;;6.07;;
36931;SDS011;22847;42.654;23.370;2024-03-06T13:42:02;9.20;;;5.47;;
36931;SDS011;22847;42.654;23.370;2024-03-06T13:44:27;14.10;;;5.35;;
36931;SDS011;22847;42.654;23.370;2024-03-06T13:46:53;14.05;;;5.90;;
36931;SDS011;22847;42.654;23.370;2024-03-06T13:49:36;8.63;;;5.35;;
36931;SDS011;22847;42.654;23.370;2024-03-06T13:52:06;11.55;;;5.47;;
36931;SDS011;22847;42.654;23.370;2024-03-06T13:54:35;7.82;;;4.75;;
36931;SDS011;22847;42.654;23.370;2024-03-06T13:57:02;15.35;;;6.32;;
36931;SDS011;22847;42.654;23.370;2024-03-06T13:59:31;10.85;;;5.20;;
36931;SDS011;22847;42.654;23.370;2024-03-06T14:01:58;11.68;;;5.75;;
36931;SDS011;22847;42.654;23.370;2024-03-06T14:04:27;10.23;;;5.47;;
36931;SDS011;22847;42.654;23.370;2024-03-06T14:06:53;12.77;;;5.82;;
36931;SDS011;22847;42.654;23.370;2024-03-06T14:09:19;12.63;;;5.65;;
36931;SDS011;22847;42.654;23.370;2024-03-06T14:11:44;6.97;;;5.43;;
36931;SDS011;22847;42.654;23.370;2024-03-06T14:14:10;11.20;;;6.25;;
36931;SDS011;22847;42.654;23.370;2024-03-06T14:16:39;12.90;;;6.43;;
36931;SDS011;22847;42.654;23.370;2024-03-06T14:19:05;11.02;;;5.82;;
36931;SDS011;22847;42.654;23.370;2024-03-06T14:21:31;11.48;;;6.47;;
36931;SDS011;22847;42.654;23.370;2024-03-06T14:23:59;13.77;;;6.18;;